Sunday, September 25, 2016, 3:01 PM EDT

KMUI, Muir Army Air Field / Indiantown

Location: Jonestown, PA, United States Lat: 40.433
Local Time: 3:01 PM EDT (19:01 GMT) Lon: -76.567
Time Zone: US/Eastern Elev: 488 ft

Show me the last for .
Show Decoded

2016-09-25 13:58 METAR KMUI 251758Z AUTO VRB03KT 10SM CLR 20/06 A3018 RMK AO2 SLP223 T01990059
                 10200 20081 57022 =
2016-09-25 12:58 METAR KMUI 251658Z AUTO 35005KT 10SM CLR 19/06 A3020 RMK AO2 SLP229 T01880064 =
2016-09-25 11:58 METAR KMUI 251558Z AUTO 05005KT 10SM CLR 18/06 A3022 RMK AO2 SLP236 T01830061 =
2016-09-25 10:58 METAR KMUI 251458Z AUTO 05003KT 10SM CLR 17/05 A3024 RMK AO2 SLP243 T01720052
                 53002 =
2016-09-25 09:58 METAR KMUI 251358Z AUTO 00000KT 10SM CLR 15/06 A3024 RMK AO2 SLP243 T01540061 =
2016-09-25 08:58 METAR KMUI 251258Z AUTO M 10SM CLR 12/07 A3024 RMK AO2 SLP244 T01150068 $ =
2016-09-25 07:58 METAR KMUI 251158Z AUTO 00000KT 10SM CLR 08/06 A3024 RMK AO2 SLP244 70001
                 T00830064 10103 20057 52009 =
2016-09-25 06:58 METAR KMUI 251058Z AUTO 00000KT 10SM CLR 06/06 A3022 RMK AO2 SLP237 T00620055 =
2016-09-25 05:58 METAR KMUI 250958Z AUTO 00000KT 10SM CLR 07/06 A3022 RMK AO2 SLP236 T00680058 =
2016-09-25 04:58 METAR KMUI 250858Z AUTO 10001KT 10SM CLR 08/06 A3021 RMK AO2 SLP233 T00750061
                 53005 =
2016-09-25 03:58 METAR KMUI 250758Z AUTO 33004KT 10SM CLR 08/06 A3020 RMK AO2 SLP229 T00750064 =
2016-09-25 02:58 METAR KMUI 250658Z AUTO 34001KT 10SM CLR 09/07 A3019 RMK AO2 SLP226 T00850069 =
2016-09-25 01:58 METAR KMUI 250558Z AUTO 00000KT 10SM CLR 09/07 A3020 RMK AO2 SLP229 T00940072
                 10153 20090 52007 =
2016-09-25 00:58 METAR KMUI 250458Z AUTO 15002KT 10SM CLR 12/07 A3019 RMK AO2 SLP226 T01190068
                 402300117 =
2016-09-24 23:58 METAR KMUI 250358Z AUTO 05004KT 10SM CLR 13/06 A3018 RMK AO2 SLP222 T01310062 =
2016-09-24 22:58 METAR KMUI 250258Z AUTO 03002KT 10SM CLR 13/08 A3017 RMK AO2 SLP219 T01290079
                 51014 =
2016-09-24 21:58 METAR KMUI 250158Z AUTO VRB02KT 10SM CLR 15/07 A3017 RMK AO2 SLP219 T01490068 =
2016-09-24 20:58 METAR KMUI 250058Z AUTO 04003KT 10SM CLR 14/08 A3015 RMK AO2 SLP212 T01410077 =
2016-09-24 19:58 METAR KMUI 242358Z AUTO 03002KT 10SM CLR 14/09 A3013 RMK AO2 SLP205 T01400087
                 10230 20140 52014 =
2016-09-24 18:58 METAR KMUI 242258Z AUTO 35004KT 10SM CLR 18/09 A3012 RMK AO2 SLP201 T01780090 =
2016-09-24 17:58 METAR KMUI 242158Z AUTO 36005KT 10SM CLR 22/06 A3010 RMK AO2 SLP194 T02160059 =
2016-09-24 16:58 METAR KMUI 242058Z AUTO 34007KT 10SM CLR 23/05 A3009 RMK AO2 SLP190 T02250052
                 55009 =
2016-09-24 15:58 METAR KMUI 241958Z AUTO 01007KT 10SM CLR 23/09 A3009 RMK AO2 SLP190 T02290087 =

Support USWX by starting your Amazon purchase here.